createdAt,value
2016-08-18T00:00:28.997Z,12.26
2016-08-18T00:01:28.910Z,12.31
2016-08-18T00:02:28.952Z,12.31
2016-08-18T00:03:29.748Z,12.34
2016-08-18T00:04:28.791Z,12.33
2016-08-18T00:05:30.078Z,12.33
2016-08-18T00:06:28.869Z,12.22
2016-08-18T00:07:28.788Z,12.26
2016-08-18T00:08:28.822Z,12.23
2016-08-18T00:09:28.963Z,12.25
2016-08-18T00:10:28.956Z,12.2
2016-08-18T00:11:28.954Z,12.18
2016-08-18T00:12:28.868Z,12.18
2016-08-18T00:13:28.813Z,12.16
2016-08-18T00:14:29.014Z,12.18
2016-08-18T00:15:29.090Z,12.05
2016-08-18T00:16:29.771Z,12.07
2016-08-18T00:17:28.991Z,12.11
2016-08-18T00:18:28.910Z,12.13
2016-08-18T00:19:29.005Z,12.22
2016-08-18T00:20:29.065Z,12.18
2016-08-18T00:21:29.633Z,12.19
2016-08-18T00:22:28.799Z,12.11
2016-08-18T00:23:28.938Z,12.16
2016-08-18T00:24:29.839Z,12.16
2016-08-18T00:25:29.072Z,12.1
2016-08-18T00:26:28.891Z,12.1
2016-08-18T00:27:28.918Z,12.13
2016-08-18T00:28:28.933Z,12.15
2016-08-18T00:29:29.095Z,12.08
2016-08-18T00:30:28.950Z,12.08
2016-08-18T00:31:29.015Z,12.01
2016-08-18T00:32:29.044Z,11.98
2016-08-18T00:33:28.942Z,12.08
2016-08-18T00:34:28.869Z,12.04
2016-08-18T00:35:29.022Z,11.98
2016-08-18T00:36:29.994Z,11.97
2016-08-18T00:37:28.994Z,12.03
2016-08-18T00:38:28.892Z,12.04
2016-08-18T00:39:28.958Z,11.94
2016-08-18T00:40:29.031Z,11.94
2016-08-18T00:41:28.977Z,11.85
2016-08-18T00:42:29.121Z,11.86
2016-08-18T00:43:29.102Z,11.81
2016-08-18T00:44:29.036Z,11.7
2016-08-18T00:45:29.087Z,11.67
2016-08-18T00:46:28.971Z,11.71
2016-08-18T00:47:29.061Z,11.61
2016-08-18T00:48:29.044Z,11.52
2016-08-18T00:49:28.874Z,11.57
2016-08-18T00:50:28.952Z,11.49
2016-08-18T00:51:29.019Z,11.57
2016-08-18T00:52:29.103Z,11.6
2016-08-18T00:53:29.075Z,11.7
2016-08-18T00:54:30.043Z,11.66
2016-08-18T00:55:29.962Z,11.61
2016-08-18T00:56:28.980Z,11.56
2016-08-18T00:57:28.932Z,11.53
2016-08-18T00:58:29.052Z,11.53
2016-08-18T00:59:29.185Z,11.49
2016-08-18T01:00:29.082Z,11.52
2016-08-18T01:01:29.189Z,11.56
2016-08-18T01:02:29.187Z,11.41
2016-08-18T01:03:29.801Z,11.59
2016-08-18T01:04:29.083Z,11.68
2016-08-18T01:05:29.031Z,11.52
2016-08-18T01:06:29.176Z,11.53
2016-08-18T01:07:29.050Z,11.63
2016-08-18T01:08:29.196Z,11.64
2016-08-18T01:09:29.725Z,11.71
2016-08-18T01:10:29.038Z,11.56
2016-08-18T01:11:29.718Z,11.63
2016-08-18T01:12:29.230Z,11.59
2016-08-18T01:17:48.505Z,11.34
2016-08-18T01:17:55.964Z,11.42
2016-08-18T01:18:56.934Z,11.21
2016-08-18T01:19:57.027Z,11.24
2016-08-18T01:20:55.941Z,11.15
2016-08-18T01:21:55.761Z,11.12
2016-08-18T01:22:56.368Z,11.15
2016-08-18T01:23:55.867Z,11.21
2016-08-18T01:24:55.848Z,11.16
2016-08-18T01:27:00.537Z,11.28
2016-08-18T01:27:07.831Z,11.06
2016-08-18T01:28:07.762Z,11.16
2016-08-18T01:29:07.977Z,11.12
2016-08-18T01:30:08.113Z,11.1
2016-08-18T01:31:07.902Z,11.15
2016-08-18T01:32:07.935Z,11.13
2016-08-18T01:33:09.122Z,11
2016-08-18T01:34:09.405Z,11.12
2016-08-18T01:35:07.881Z,10.97
2016-08-18T01:36:08.509Z,11
2016-08-18T01:37:07.865Z,11.05
2016-08-18T01:38:08.757Z,10.98
2016-08-18T01:39:07.792Z,11.02
2016-08-18T01:40:08.007Z,11.06
2016-08-18T01:41:08.802Z,11.2
2016-08-18T01:42:08.702Z,11.21
2016-08-18T01:43:08.047Z,11.18
2016-08-18T01:44:08.005Z,11.18
2016-08-18T01:45:07.966Z,11.08
2016-08-18T01:46:07.941Z,11.1
2016-08-18T01:47:08.634Z,11.24
2016-08-18T01:48:09.981Z,11.24
2016-08-18T01:49:07.930Z,11.23
2016-08-18T01:50:07.819Z,11.31
2016-08-18T01:51:07.871Z,11.41
2016-08-18T01:52:07.950Z,11.35
2016-08-18T01:53:08.034Z,11.41
2016-08-18T01:54:08.696Z,11.41
2016-08-18T01:55:07.894Z,11.38
2016-08-18T01:56:08.238Z,11.45
2016-08-18T01:57:08.095Z,11.56
2016-08-18T01:58:07.884Z,11.39
2016-08-18T01:59:07.946Z,11.39
2016-08-18T02:00:08.078Z,11.3
2016-08-18T02:01:07.867Z,11.3
2016-08-18T02:02:07.946Z,11.24
2016-08-18T02:03:07.814Z,11.18
2016-08-18T02:04:07.951Z,11.15
2016-08-18T02:05:08.405Z,11.13
2016-08-18T02:06:08.101Z,11.06
2016-08-18T02:07:08.032Z,11.09
2016-08-18T02:08:08.171Z,10.97
2016-08-18T02:09:07.984Z,10.94
2016-08-18T02:10:08.176Z,11.02
2016-08-18T02:11:08.112Z,10.92
2016-08-18T02:12:08.769Z,11
2016-08-18T02:13:08.089Z,10.95
2016-08-18T02:14:07.929Z,10.88
2016-08-18T02:15:07.951Z,10.84
2016-08-18T02:16:07.968Z,10.91
2016-08-18T02:17:07.951Z,10.91
2016-08-18T02:18:07.989Z,10.94
2016-08-18T02:19:07.932Z,10.94
2016-08-18T02:20:08.063Z,11.02
2016-08-18T02:21:08.019Z,11
2016-08-18T02:22:07.974Z,10.94
2016-08-18T02:23:08.105Z,10.87
2016-08-18T02:24:07.931Z,10.8
2016-08-18T02:25:08.141Z,10.73
2016-08-18T02:26:09.072Z,10.7
2016-08-18T02:27:07.998Z,10.76
2016-08-18T02:28:08.257Z,10.66
2016-08-18T02:29:07.895Z,10.69
2016-08-18T02:30:09.756Z,10.77
2016-08-18T02:31:08.285Z,10.69
2016-08-18T02:32:08.065Z,10.7
2016-08-18T02:33:08.670Z,10.67
2016-08-18T02:34:08.743Z,10.63
2016-08-18T02:35:08.195Z,10.61
2016-08-18T02:36:08.725Z,10.75
2016-08-18T02:37:08.714Z,10.79
2016-08-18T02:38:08.848Z,10.77
2016-08-18T02:39:08.071Z,10.77
2016-08-18T02:40:08.884Z,10.83
2016-08-18T02:41:07.996Z,10.79
2016-08-18T02:42:07.861Z,10.87
2016-08-18T02:43:07.855Z,10.77
2016-08-18T02:44:07.808Z,10.72
2016-08-18T02:45:07.992Z,10.57
2016-08-18T02:46:07.807Z,10.59
2016-08-18T02:47:07.814Z,10.55
2016-08-18T02:48:07.902Z,10.57
2016-08-18T02:49:08.193Z,10.69
2016-08-18T02:50:07.747Z,10.59
2016-08-18T02:51:07.750Z,10.59
2016-08-18T02:52:07.757Z,10.65
2016-08-18T02:53:07.763Z,10.65
2016-08-18T02:54:07.833Z,10.65
2016-08-18T02:55:07.835Z,10.55
2016-08-18T02:56:07.912Z,10.65
2016-08-18T02:57:07.838Z,10.67
2016-08-18T02:58:07.765Z,10.65
2016-08-18T02:59:07.841Z,10.54
2016-08-18T03:00:07.778Z,10.54
2016-08-18T03:01:07.779Z,10.59
2016-08-18T03:02:07.856Z,10.72
2016-08-18T03:03:07.862Z,10.59
2016-08-18T03:04:08.138Z,10.66
2016-08-18T03:05:07.793Z,10.49
2016-08-18T03:06:07.791Z,10.52
2016-08-18T03:07:07.876Z,10.55
2016-08-18T03:08:08.123Z,10.51
2016-08-18T03:09:07.947Z,10.46
2016-08-18T03:10:07.869Z,10.46
2016-08-18T03:11:07.889Z,10.35
2016-08-18T03:12:08.015Z,10.29
2016-08-18T03:13:07.896Z,10.32
2016-08-18T03:14:07.955Z,10.21
2016-08-18T03:15:07.892Z,10.23
2016-08-18T03:16:07.968Z,10.21
2016-08-18T03:17:07.898Z,10.23
2016-08-18T03:18:07.952Z,10.11
2016-08-18T03:19:07.905Z,10.13
2016-08-18T03:20:07.948Z,9.99
2016-08-18T03:21:07.921Z,10.07
2016-08-18T03:22:08.000Z,9.98
2016-08-18T03:23:08.046Z,9.95
2016-08-18T03:24:07.922Z,10.03
2016-08-18T03:25:07.927Z,9.99
2016-08-18T03:26:07.869Z,9.93
2016-08-18T03:27:07.961Z,9.96
2016-08-18T03:28:07.997Z,9.96
2016-08-18T03:29:07.860Z,9.95
2016-08-18T03:30:07.853Z,10.03
2016-08-18T03:31:08.082Z,10
2016-08-18T03:32:07.935Z,10.11
2016-08-18T03:33:07.934Z,10.11
2016-08-18T03:34:07.861Z,10.08
2016-08-18T03:35:08.236Z,10.14
2016-08-18T03:36:08.017Z,10.21
2016-08-18T03:37:07.957Z,10.29
2016-08-18T03:38:07.969Z,10.31
2016-08-18T03:39:07.953Z,10.31
2016-08-18T03:40:07.958Z,10.28
2016-08-18T03:41:07.889Z,10.29
2016-08-18T03:42:07.891Z,10.28
2016-08-18T03:43:08.043Z,10.28
2016-08-18T03:44:07.971Z,10.35
2016-08-18T03:45:07.895Z,10.31
2016-08-18T03:46:08.093Z,10.35
2016-08-18T03:47:07.968Z,10.35
2016-08-18T03:48:07.986Z,10.29
2016-08-18T03:49:08.062Z,10.31
2016-08-18T03:50:08.122Z,10.26
2016-08-18T03:51:07.993Z,10.31
2016-08-18T03:52:08.005Z,10.31
2016-08-18T03:53:07.989Z,10.29
2016-08-18T03:54:08.068Z,10.32
2016-08-18T03:55:07.916Z,10.26
2016-08-18T03:56:07.937Z,10.17
2016-08-18T03:57:08.021Z,10.18
2016-08-18T03:58:08.181Z,10.17
2016-08-18T03:59:08.082Z,10.1
2016-08-18T04:00:08.006Z,10.11
2016-08-18T04:01:08.007Z,10.18
2016-08-18T04:02:08.102Z,10.23
2016-08-18T04:03:08.026Z,10.28
2016-08-18T04:04:07.972Z,10.25
2016-08-18T04:05:08.028Z,10.35
2016-08-18T04:06:08.034Z,10.33
2016-08-18T04:07:08.027Z,10.44
2016-08-18T04:08:08.045Z,10.55
2016-08-18T04:09:08.046Z,10.59
2016-08-18T04:10:08.053Z,10.65
2016-08-18T04:11:07.984Z,10.61
2016-08-18T04:12:08.056Z,10.69
2016-08-18T04:13:08.183Z,10.66
2016-08-18T04:14:07.979Z,10.63
2016-08-18T04:15:08.054Z,10.61
2016-08-18T04:16:07.985Z,10.46
2016-08-18T04:17:08.100Z,10.49
2016-08-18T04:18:08.071Z,10.42
2016-08-18T04:19:08.076Z,10.41
2016-08-18T04:20:08.014Z,10.42
2016-08-18T04:21:08.089Z,10.35
2016-08-18T04:22:08.147Z,10.31
2016-08-18T04:23:08.007Z,10.28
2016-08-18T04:24:08.159Z,10.2
2016-08-18T04:25:08.091Z,10.15
2016-08-18T04:26:08.087Z,10.14
2016-08-18T04:27:08.097Z,10.18
2016-08-18T04:28:08.195Z,10.07
2016-08-18T04:29:08.169Z,9.99
2016-08-18T04:30:08.181Z,9.99
2016-08-18T04:31:08.030Z,10.07
2016-08-18T04:32:08.208Z,10
2016-08-18T04:33:08.031Z,10.02
2016-08-18T04:34:08.189Z,10.11
2016-08-18T04:35:08.201Z,9.96
2016-08-18T04:36:08.136Z,10
2016-08-18T04:37:08.190Z,10.02
2016-08-18T04:38:08.196Z,9.93
2016-08-18T04:39:08.125Z,10.05
2016-08-18T04:40:08.382Z,9.98
2016-08-18T04:41:08.066Z,10
2016-08-18T04:42:08.057Z,9.92
2016-08-18T04:43:08.133Z,10.03
2016-08-18T04:44:08.268Z,10.03
2016-08-18T04:45:08.142Z,10
2016-08-18T04:46:08.219Z,10
2016-08-18T04:47:08.134Z,9.88
2016-08-18T04:48:08.095Z,9.98
2016-08-18T04:49:08.162Z,10.1
2016-08-18T04:50:08.105Z,10.08
2016-08-18T04:51:08.210Z,10.14
2016-08-18T04:52:08.201Z,10.14
2016-08-18T04:53:08.168Z,10.08
2016-08-18T04:54:08.175Z,10.05
2016-08-18T04:55:08.428Z,10.08
2016-08-18T04:56:08.105Z,10.05
2016-08-18T04:57:08.177Z,10.02
2016-08-18T04:58:08.179Z,9.92
2016-08-18T04:59:08.377Z,9.93
2016-08-18T05:00:08.120Z,9.92
2016-08-18T05:01:08.109Z,9.89
2016-08-18T05:02:08.201Z,10.07
2016-08-18T05:03:08.425Z,10
2016-08-18T05:04:08.117Z,10.13
2016-08-18T05:05:08.197Z,10.13
2016-08-18T05:06:08.213Z,10.15
2016-08-18T05:07:08.283Z,10.29
2016-08-18T05:08:08.218Z,10.26
2016-08-18T05:09:08.210Z,10.35
2016-08-18T05:10:08.211Z,10.46
2016-08-18T05:11:08.137Z,10.44
2016-08-18T05:12:08.216Z,10.36
2016-08-18T05:13:08.143Z,10.47
2016-08-18T05:14:08.228Z,10.54
2016-08-18T05:15:08.145Z,10.47
2016-08-18T05:16:08.245Z,10.51
2016-08-18T05:17:08.165Z,10.58
2016-08-18T05:18:08.339Z,10.55
2016-08-18T05:19:08.162Z,10.57
2016-08-18T05:20:08.314Z,10.47
2016-08-18T05:21:08.358Z,10.57
2016-08-18T05:22:08.471Z,10.58
2016-08-18T05:23:08.178Z,10.61
2016-08-18T05:24:08.187Z,10.58
2016-08-18T05:25:08.252Z,10.61
2016-08-18T05:26:08.428Z,10.55
2016-08-18T05:27:08.289Z,10.52
2016-08-18T05:28:08.186Z,10.58
2016-08-18T05:29:08.201Z,10.55
2016-08-18T05:30:08.282Z,10.7
2016-08-18T05:31:08.204Z,10.8
2016-08-18T05:32:08.438Z,10.87
2016-08-18T05:33:08.356Z,10.98
2016-08-18T05:34:08.278Z,11.1
2016-08-18T05:35:08.277Z,11.2
2016-08-18T05:36:08.214Z,11.3
2016-08-18T05:37:08.205Z,11.42
2016-08-18T05:38:08.333Z,11.57
2016-08-18T05:39:08.375Z,11.79
2016-08-18T05:40:08.367Z,11.98
2016-08-18T05:41:08.261Z,12.07
2016-08-18T05:42:08.300Z,12.15
2016-08-18T05:43:08.315Z,12.16
2016-08-18T05:44:08.237Z,12.29
2016-08-18T05:45:08.426Z,12.43
2016-08-18T05:46:08.262Z,12.47
2016-08-18T05:47:08.329Z,12.7
2016-08-18T05:48:08.323Z,12.77
2016-08-18T05:49:08.420Z,12.95
2016-08-18T05:50:08.253Z,13.11
2016-08-18T05:51:08.321Z,13.28
2016-08-18T05:52:08.461Z,13.35
2016-08-18T05:53:08.391Z,13.51
2016-08-18T05:54:08.560Z,13.68
2016-08-18T05:55:08.791Z,13.83
2016-08-18T05:56:08.350Z,13.99
2016-08-18T05:57:08.357Z,14.11
2016-08-18T05:58:08.419Z,14.24
2016-08-18T05:59:08.339Z,14.41
2016-08-18T06:00:08.374Z,14.67
2016-08-18T06:01:08.376Z,14.83
2016-08-18T06:02:08.386Z,14.94
2016-08-18T06:03:08.436Z,15.19
2016-08-18T06:04:08.534Z,15.43
2016-08-18T06:05:08.395Z,15.8
2016-08-18T06:06:08.455Z,15.99
2016-08-18T06:07:08.455Z,16.02
2016-08-18T06:08:08.547Z,16.14
2016-08-18T06:09:08.307Z,15.99
2016-08-18T06:10:08.301Z,15.83
2016-08-18T06:11:08.470Z,15.83
2016-08-18T06:12:08.654Z,15.78
2016-08-18T06:13:08.306Z,15.8
2016-08-18T06:14:08.470Z,15.92
2016-08-18T06:15:08.516Z,16.3
2016-08-18T06:16:08.564Z,16.44
2016-08-18T06:17:08.454Z,16.51
2016-08-18T06:18:08.338Z,16.62
2016-08-18T06:19:08.408Z,16.48
2016-08-18T06:20:08.635Z,16.59
2016-08-18T06:21:08.557Z,16.88
2016-08-18T06:22:09.158Z,17.07
2016-08-18T06:23:08.578Z,16.92
2016-08-18T06:24:08.684Z,17.06
2016-08-18T06:25:08.462Z,17.13
2016-08-18T06:26:08.365Z,17.31
2016-08-18T06:27:08.520Z,17.54
2016-08-18T06:28:08.734Z,17.77
2016-08-18T06:29:08.455Z,17.68
2016-08-18T06:30:08.444Z,17.94
2016-08-18T06:31:08.442Z,17.76
2016-08-18T06:32:08.454Z,17.86
2016-08-18T06:33:08.379Z,18.1
2016-08-18T06:34:08.568Z,18.21
2016-08-18T06:35:08.601Z,18.32
2016-08-18T06:36:08.474Z,18.41
2016-08-18T06:37:08.579Z,18.53
2016-08-18T06:38:08.470Z,18.53
2016-08-18T06:39:08.549Z,18.57
2016-08-18T06:40:08.485Z,18.47
2016-08-18T06:41:08.555Z,18.45
2016-08-18T06:42:08.580Z,18.6
2016-08-18T06:43:08.742Z,18.65
2016-08-18T06:44:08.419Z,18.82
2016-08-18T06:45:08.625Z,19.37
2016-08-18T06:46:08.505Z,19.45
2016-08-18T06:47:08.572Z,19.34
2016-08-18T06:48:08.498Z,19.3
2016-08-18T06:49:08.506Z,19.49
2016-08-18T06:50:08.426Z,19.47
2016-08-18T06:51:08.714Z,19.52
2016-08-18T06:52:08.505Z,19.49
2016-08-18T06:53:08.546Z,19.55
2016-08-18T06:54:09.555Z,19.68
2016-08-18T06:55:08.628Z,19.71
2016-08-18T06:56:08.456Z,19.72
2016-08-18T06:57:08.482Z,20.01
2016-08-18T06:58:08.626Z,20.12
2016-08-18T06:59:08.554Z,20.34
2016-08-18T07:00:08.969Z,19.93
2016-08-18T07:01:08.551Z,19.89
2016-08-18T07:02:08.692Z,19.97
2016-08-18T07:03:09.268Z,20.02
2016-08-18T07:04:08.709Z,20.04
2016-08-18T07:05:08.667Z,19.98
2016-08-18T07:06:08.621Z,19.95
2016-08-18T07:07:08.562Z,20.22
2016-08-18T07:08:08.649Z,20.34
2016-08-18T07:09:08.583Z,20.27
2016-08-18T07:10:09.252Z,20.63
2016-08-18T07:11:08.567Z,20.71
2016-08-18T07:12:08.574Z,20.97
2016-08-18T07:13:08.522Z,20.9
2016-08-18T07:14:09.564Z,20.71
2016-08-18T07:15:08.585Z,20.42
2016-08-18T07:16:08.647Z,20.56
2016-08-18T07:17:08.705Z,20.57
2016-08-18T07:18:08.845Z,20.81
2016-08-18T07:19:08.622Z,21.03
2016-08-18T07:20:08.597Z,21.08
2016-08-18T07:21:08.692Z,21.22
2016-08-18T07:22:08.586Z,21.4
2016-08-18T07:23:08.677Z,21.38
2016-08-18T07:24:08.691Z,21.55
2016-08-18T07:25:08.529Z,21.46
2016-08-18T07:26:09.161Z,21.59
2016-08-18T07:27:08.690Z,21.85
2016-08-18T07:28:08.638Z,22.11
2016-08-18T07:29:08.652Z,22.36
2016-08-18T07:30:08.869Z,22.27
2016-08-18T07:31:08.938Z,22.02
2016-08-18T07:32:08.554Z,22.11
2016-08-18T07:33:09.463Z,22.26
2016-08-18T07:34:08.549Z,22.48
2016-08-18T07:35:08.822Z,22.86
2016-08-18T07:36:09.035Z,23.07
2016-08-18T07:37:08.823Z,23.24
2016-08-18T07:38:08.703Z,23.5
2016-08-18T07:39:08.651Z,23.52
2016-08-18T07:40:09.221Z,23.45
2016-08-18T07:41:08.825Z,23.38
2016-08-18T07:42:09.409Z,23.44
2016-08-18T07:43:08.752Z,23.38
2016-08-18T07:44:08.736Z,23.48
2016-08-18T07:45:08.729Z,23.45
2016-08-18T07:46:10.414Z,23.53
2016-08-18T07:47:08.697Z,23.66
2016-08-18T07:48:08.680Z,23.53
2016-08-18T07:49:08.758Z,23.6
2016-08-18T07:50:08.715Z,23.7
2016-08-18T07:51:08.936Z,23.55
2016-08-18T07:52:08.947Z,23.48
2016-08-18T07:53:08.776Z,23.63
2016-08-18T07:54:08.827Z,23.97
2016-08-18T07:55:08.852Z,24.33
2016-08-18T07:56:09.060Z,24.46
2016-08-18T07:57:08.785Z,24.54
2016-08-18T07:58:09.454Z,24.44
2016-08-18T07:59:08.665Z,24.58
2016-08-18T08:00:12.658Z,24.37
2016-08-18T08:01:08.790Z,24.29
2016-08-18T08:02:08.742Z,24.42
2016-08-18T08:03:08.826Z,24.61
2016-08-18T08:04:08.786Z,24.78
2016-08-18T08:05:08.797Z,24.86
2016-08-18T08:06:08.651Z,25.01
2016-08-18T08:07:08.739Z,25.22
2016-08-18T08:08:08.901Z,25.04
2016-08-18T08:09:08.807Z,25.05
2016-08-18T08:10:08.715Z,25.11
2016-08-18T08:11:08.836Z,25.11
2016-08-18T08:12:08.720Z,24.86
2016-08-18T08:13:08.683Z,24.52
2016-08-18T08:14:09.449Z,24.39
2016-08-18T08:15:08.677Z,24.8
2016-08-18T08:16:08.731Z,25.26
2016-08-18T08:17:08.857Z,25.49
2016-08-18T08:18:08.848Z,25.78
2016-08-18T08:19:08.772Z,26.22
2016-08-18T08:20:08.864Z,26.27
2016-08-18T08:21:09.215Z,26.31
2016-08-18T08:22:08.703Z,25.66
2016-08-18T08:23:08.862Z,25.64
2016-08-18T08:24:08.827Z,25.33
2016-08-18T08:25:08.971Z,25.39
2016-08-18T08:26:08.870Z,25.07
2016-08-18T08:27:09.504Z,24.34
2016-08-18T08:28:08.720Z,24.33
2016-08-18T08:29:08.751Z,24.26
2016-08-18T08:30:09.283Z,24.61
2016-08-18T08:31:08.973Z,24.7
2016-08-18T08:32:08.889Z,25
2016-08-18T08:33:08.823Z,24.64
2016-08-18T08:34:08.897Z,24.12
2016-08-18T08:35:12.595Z,24.39
2016-08-18T08:36:09.305Z,24.69
2016-08-18T08:37:08.766Z,25.22
2016-08-18T08:38:08.886Z,25.15
2016-08-18T08:39:08.996Z,25.24
2016-08-18T08:40:12.712Z,25.64
2016-08-18T08:41:08.872Z,25.67
2016-08-18T08:42:08.967Z,25.75
2016-08-18T08:43:08.956Z,26.47
2016-08-18T08:44:08.783Z,26.86
2016-08-18T08:45:08.992Z,27.33
2016-08-18T08:46:09.719Z,27
2016-08-18T08:47:09.000Z,26.81
2016-08-18T08:48:08.811Z,26.68
2016-08-18T08:49:08.856Z,26.01
2016-08-18T08:50:14.511Z,26.39
2016-08-18T08:51:08.896Z,26.82
2016-08-18T08:52:08.875Z,27.46
2016-08-18T08:53:08.876Z,27.41
2016-08-18T08:54:08.828Z,27.75
2016-08-18T08:55:13.661Z,28.01
2016-08-18T08:56:09.231Z,27.9
2016-08-18T08:57:08.888Z,27.61
2016-08-18T08:58:08.865Z,27.71
2016-08-18T08:59:09.251Z,28.17
2016-08-18T09:00:08.803Z,28.49
2016-08-18T09:01:08.935Z,28.68
2016-08-18T09:02:09.119Z,29.24
2016-08-18T09:03:08.824Z,28.09
2016-08-18T09:04:08.975Z,28.05
2016-08-18T09:05:09.183Z,28.14
2016-08-18T09:06:09.128Z,28.49
2016-08-18T09:07:08.924Z,28.75
2016-08-18T09:08:08.839Z,28.79
2016-08-18T09:09:08.858Z,28.21
2016-08-18T09:10:09.085Z,28.53
2016-08-18T09:11:09.062Z,28.78
2016-08-18T09:12:09.163Z,28.68
2016-08-18T09:13:09.011Z,28.9
2016-08-18T09:14:08.913Z,28.86
2016-08-18T09:15:09.036Z,28.98
2016-08-18T09:16:09.054Z,29.03
2016-08-18T09:17:08.857Z,28.17
2016-08-18T09:18:09.984Z,28.33
2016-08-18T09:19:09.567Z,28.63
2016-08-18T09:20:10.305Z,29.2
2016-08-18T09:21:09.163Z,29.47
2016-08-18T09:22:09.462Z,29.32
2016-08-18T09:23:09.099Z,29.15
2016-08-18T09:24:09.107Z,29.06
2016-08-18T09:25:09.228Z,28.79
2016-08-18T09:26:09.082Z,29.11
2016-08-18T09:27:09.138Z,28.91
2016-08-18T09:28:08.901Z,28.36
2016-08-18T09:29:09.760Z,28.38
2016-08-18T09:30:09.007Z,29.05
2016-08-18T09:31:09.043Z,29.06
2016-08-18T09:32:09.021Z,28.63
2016-08-18T09:33:09.029Z,28.73
2016-08-18T09:34:09.278Z,29.4
2016-08-18T09:35:09.526Z,29.67
2016-08-18T09:36:09.290Z,30.07
2016-08-18T09:37:09.023Z,30.07
2016-08-18T09:38:09.052Z,30.16
2016-08-18T09:39:09.001Z,30.32
2016-08-18T09:40:09.968Z,30.11
2016-08-18T09:41:09.005Z,29.73
2016-08-18T09:42:08.967Z,30.07
2016-08-18T09:43:09.124Z,30.67
2016-08-18T09:44:09.222Z,31.25
2016-08-18T09:45:09.116Z,31.31
2016-08-18T09:46:09.434Z,31.3
2016-08-18T09:47:09.147Z,31.28
2016-08-18T09:48:09.094Z,30.89
2016-08-18T09:49:09.653Z,30.78
2016-08-18T09:50:09.719Z,30.19
2016-08-18T09:51:09.070Z,30.37
2016-08-18T09:52:08.981Z,30.29
2016-08-18T09:53:08.991Z,30.37
2016-08-18T09:54:08.996Z,30.71
2016-08-18T09:55:09.192Z,30.81
2016-08-18T09:56:09.138Z,31.12
2016-08-18T09:57:09.922Z,30.16
2016-08-18T09:58:09.209Z,30.1
2016-08-18T09:59:09.097Z,30.49
2016-08-18T10:00:11.657Z,30.89
2016-08-18T10:01:09.100Z,31.38
2016-08-18T10:02:09.091Z,30.49
2016-08-18T10:03:09.224Z,28.73
2016-08-18T10:04:09.002Z,27.79
2016-08-18T10:05:09.207Z,26.72
2016-08-18T10:06:09.636Z,26.19
2016-08-18T10:07:09.318Z,27.23
2016-08-18T10:08:09.272Z,28.9
2016-08-18T10:09:09.159Z,29.5
2016-08-18T10:11:09.275Z,30.04
2016-08-18T10:12:09.070Z,30.24
2016-08-18T10:13:09.510Z,30.69
2016-08-18T10:14:09.038Z,29.84
2016-08-18T10:15:11.051Z,30.34
2016-08-18T10:16:09.045Z,31.21
2016-08-18T10:17:09.203Z,30.22
2016-08-18T10:18:09.084Z,28.9
2016-08-18T10:19:09.405Z,27.81
2016-08-18T10:20:09.197Z,27.38
2016-08-18T10:21:09.055Z,27.37
2016-08-18T10:22:10.187Z,28.14
2016-08-18T10:23:09.296Z,28.33
2016-08-18T10:24:09.149Z,29.21
2016-08-18T10:25:09.961Z,29.11
2016-08-18T10:26:09.480Z,29.18
2016-08-18T10:27:09.282Z,29.77
2016-08-18T10:28:09.180Z,30.4
2016-08-18T10:29:09.256Z,30.67
2016-08-18T10:30:09.113Z,31.01
2016-08-18T10:31:09.149Z,30.64
2016-08-18T10:32:09.216Z,30.28
2016-08-18T10:33:09.355Z,30.16
2016-08-18T10:34:09.137Z,30.7
2016-08-18T10:35:09.937Z,31.12
2016-08-18T10:36:09.154Z,29.61
2016-08-18T10:37:09.413Z,29.36
2016-08-18T10:38:09.304Z,29.67
2016-08-18T10:39:09.275Z,30.07
2016-08-18T10:40:09.544Z,30.94
2016-08-18T10:41:09.192Z,31.52
2016-08-18T10:42:09.399Z,32.1
2016-08-18T10:43:09.465Z,32.16
2016-08-18T10:44:09.295Z,32.28
2016-08-18T10:45:09.320Z,32.32
2016-08-18T10:46:09.389Z,31.6
2016-08-18T10:47:09.231Z,29.73
2016-08-18T10:48:09.130Z,29.79
2016-08-18T10:49:09.229Z,29.98
2016-08-18T10:50:09.275Z,30.24
2016-08-18T10:51:09.430Z,29.26
2016-08-18T10:52:09.331Z,28.8
2016-08-18T10:53:09.251Z,28.26
2016-08-18T10:54:09.371Z,27.52
2016-08-18T10:55:09.253Z,27.43
2016-08-18T10:56:09.267Z,28.33
2016-08-18T10:57:09.296Z,29.4
2016-08-18T10:58:09.468Z,30.44
2016-08-18T10:59:09.382Z,30.37
2016-08-18T11:00:12.682Z,30.52
2016-08-18T11:01:09.456Z,30.89
2016-08-18T11:02:09.635Z,30.67
2016-08-18T11:03:09.310Z,31.5
2016-08-18T11:04:09.345Z,32.17
2016-08-18T11:05:09.672Z,32.87
2016-08-18T11:06:09.214Z,33.29
2016-08-18T11:07:09.313Z,33.93
2016-08-18T11:08:09.219Z,33.03
2016-08-18T11:09:10.159Z,32.28
2016-08-18T11:10:09.293Z,31.44
2016-08-18T11:11:09.305Z,31.47
2016-08-18T11:12:10.086Z,31.75
2016-08-18T11:13:09.365Z,31.41
2016-08-18T11:14:09.386Z,31.56
2016-08-18T11:15:09.422Z,31.91
2016-08-18T11:16:09.364Z,31.63
2016-08-18T11:17:09.336Z,31.94
2016-08-18T11:18:09.415Z,32.09
2016-08-18T11:19:09.420Z,32.3
2016-08-18T11:20:09.266Z,31.6
2016-08-18T11:21:09.412Z,31.44
2016-08-18T11:22:09.421Z,31.62
2016-08-18T11:23:09.315Z,32.2
2016-08-18T11:24:09.572Z,32.42
2016-08-18T11:25:09.350Z,31.82
2016-08-18T11:26:09.434Z,30.64
2016-08-18T11:27:09.402Z,31.62
2016-08-18T11:28:09.839Z,31.13
2016-08-18T11:29:09.408Z,28.54
2016-08-18T11:30:09.360Z,28.2
2016-08-18T11:31:09.348Z,28.08
2016-08-18T11:32:09.481Z,27.15
2016-08-18T11:33:09.425Z,26.87
2016-08-18T11:34:09.377Z,27.13
2016-08-18T11:35:09.491Z,26.89
2016-08-18T11:36:09.447Z,27.48
2016-08-18T11:37:09.382Z,28.42
2016-08-18T11:38:09.451Z,29.67
2016-08-18T11:39:10.251Z,30.09
2016-08-18T11:40:09.358Z,31.23
2016-08-18T11:41:09.505Z,31.8
2016-08-18T11:42:09.378Z,32.34
2016-08-18T11:43:09.461Z,32.59
2016-08-18T11:44:09.317Z,32.49
2016-08-18T11:45:09.708Z,32.46
2016-08-18T11:46:09.407Z,31.81
2016-08-18T11:47:09.459Z,31.91
2016-08-18T11:48:09.499Z,32.2
2016-08-18T11:49:09.624Z,32.65
2016-08-18T11:50:10.043Z,33.26
2016-08-18T11:51:09.355Z,32.89
2016-08-18T11:52:09.509Z,32.06
2016-08-18T11:53:09.425Z,31.81
2016-08-18T11:54:09.465Z,32.01
2016-08-18T11:55:09.515Z,32.54
2016-08-18T11:56:09.493Z,32.19
2016-08-18T12:12:09.256Z,31.71
2016-08-18T12:13:09.040Z,31.36
2016-08-18T12:14:09.125Z,31.47
2016-08-18T12:15:09.738Z,31.97
2016-08-18T12:16:09.845Z,32.67
2016-08-18T12:17:09.713Z,33.05
2016-08-18T12:18:10.420Z,33.11
2016-08-18T12:19:09.766Z,33.02
2016-08-18T12:20:09.590Z,32.56
2016-08-18T12:21:09.664Z,31.72
2016-08-18T12:22:09.978Z,31.63
2016-08-18T12:23:10.457Z,32.17
2016-08-18T12:24:09.838Z,32.54
2016-08-18T12:25:09.663Z,32.79
2016-08-18T12:26:09.758Z,33.4
2016-08-18T12:27:09.797Z,33.41
2016-08-18T12:28:10.605Z,33.24
2016-08-18T12:29:09.726Z,33.29
2016-08-18T12:30:09.747Z,32.99
2016-08-18T12:31:09.755Z,32.84
2016-08-18T12:32:09.654Z,31.98
2016-08-18T12:33:09.771Z,32.32
2016-08-18T12:34:09.711Z,30.94
2016-08-18T12:35:09.699Z,30.93
2016-08-18T12:36:10.004Z,31.4
2016-08-18T12:37:09.829Z,30.99
2016-08-18T12:38:10.200Z,31.75
2016-08-18T12:39:12.002Z,32.24
2016-08-18T12:40:09.733Z,32.69
2016-08-18T12:41:09.916Z,32.12
2016-08-18T12:42:09.851Z,31.87
2016-08-18T12:43:09.909Z,32.32
2016-08-18T12:44:10.007Z,32.69
2016-08-18T12:45:09.873Z,33.08
2016-08-18T12:46:09.716Z,32.87
2016-08-18T12:47:09.839Z,33.05
2016-08-18T12:48:09.753Z,32.49
2016-08-18T12:49:09.819Z,31.98
2016-08-18T12:50:10.196Z,31.93
2016-08-18T12:51:10.444Z,31.91
2016-08-18T12:52:09.687Z,32.16
2016-08-18T12:53:09.762Z,32.31
2016-08-18T12:54:09.845Z,32.24
2016-08-18T12:55:10.717Z,32.69
2016-08-18T12:56:09.749Z,33.32
2016-08-18T12:57:09.790Z,32.75
2016-08-18T12:58:09.763Z,32.32
2016-08-18T12:59:09.814Z,31.81
2016-08-18T13:00:09.555Z,32.06
2016-08-18T13:01:09.695Z,31.37
2016-08-18T13:02:09.954Z,31.31
2016-08-18T13:03:09.806Z,31.56
2016-08-18T13:04:09.746Z,31.9
2016-08-18T13:05:09.765Z,32.56
2016-08-18T13:06:09.659Z,33.4
2016-08-18T13:07:09.705Z,34.21
2016-08-18T13:08:09.895Z,33.2
2016-08-18T13:09:09.931Z,32.62
2016-08-18T13:10:10.135Z,32.71
2016-08-18T13:11:09.989Z,32.94
2016-08-18T13:12:10.599Z,33.11
2016-08-18T13:13:11.103Z,33.47
2016-08-18T13:14:09.836Z,33.59
2016-08-18T13:15:09.827Z,32.71
2016-08-18T13:16:09.864Z,31.52